sensor_id;sensor_type;location;lat;lon;timestamp;P1;durP1;ratioP1;P2;durP2;ratioP2
15833;SDS011;8017;50.812;4.934;2023-04-15T00:01:40;12.87;;;6.97;;
15833;SDS011;8017;50.812;4.934;2023-04-15T00:04:42;15.30;;;7.63;;
15833;SDS011;8017;50.812;4.934;2023-04-15T00:07:44;11.67;;;7.67;;
15833;SDS011;8017;50.812;4.934;2023-04-15T00:10:47;14.03;;;7.27;;
15833;SDS011;8017;50.812;4.934;2023-04-15T00:13:49;14.43;;;7.07;;
15833;SDS011;8017;50.812;4.934;2023-04-15T00:16:51;7.93;;;4.83;;
15833;SDS011;8017;50.812;4.934;2023-04-15T00:19:55;6.50;;;4.67;;
15833;SDS011;8017;50.812;4.934;2023-04-15T00:22:58;7.83;;;4.83;;
15833;SDS011;8017;50.812;4.934;2023-04-15T00:26:02;8.70;;;4.60;;
15833;SDS011;8017;50.812;4.934;2023-04-15T00:29:04;7.60;;;4.77;;
15833;SDS011;8017;50.812;4.934;2023-04-15T00:32:06;6.60;;;4.43;;
15833;SDS011;8017;50.812;4.934;2023-04-15T00:35:08;6.77;;;3.80;;
15833;SDS011;8017;50.812;4.934;2023-04-15T00:38:10;9.20;;;4.27;;
15833;SDS011;8017;50.812;4.934;2023-04-15T00:41:13;7.33;;;4.70;;
15833;SDS011;8017;50.812;4.934;2023-04-15T00:44:15;6.17;;;4.23;;
15833;SDS011;8017;50.812;4.934;2023-04-15T00:47:17;6.90;;;4.47;;
15833;SDS011;8017;50.812;4.934;2023-04-15T00:50:21;8.57;;;4.30;;
15833;SDS011;8017;50.812;4.934;2023-04-15T00:53:23;7.67;;;4.60;;
15833;SDS011;8017;50.812;4.934;2023-04-15T00:56:26;8.10;;;4.63;;
15833;SDS011;8017;50.812;4.934;2023-04-15T00:59:29;7.63;;;4.50;;
15833;SDS011;8017;50.812;4.934;2023-04-15T01:02:33;5.07;;;3.90;;
15833;SDS011;8017;50.812;4.934;2023-04-15T01:05:36;6.93;;;4.27;;
15833;SDS011;8017;50.812;4.934;2023-04-15T01:08:38;5.10;;;4.13;;
15833;SDS011;8017;50.812;4.934;2023-04-15T01:11:42;8.23;;;4.97;;
15833;SDS011;8017;50.812;4.934;2023-04-15T01:14:44;6.17;;;4.40;;
15833;SDS011;8017;50.812;4.934;2023-04-15T01:17:46;7.37;;;4.43;;
15833;SDS011;8017;50.812;4.934;2023-04-15T01:20:49;9.23;;;4.63;;
15833;SDS011;8017;50.812;4.934;2023-04-15T01:23:51;7.43;;;4.73;;
15833;SDS011;8017;50.812;4.934;2023-04-15T01:26:56;9.40;;;5.20;;
15833;SDS011;8017;50.812;4.934;2023-04-15T01:29:58;6.67;;;3.90;;
15833;SDS011;8017;50.812;4.934;2023-04-15T01:33:00;5.07;;;3.93;;
15833;SDS011;8017;50.812;4.934;2023-04-15T01:36:02;7.90;;;4.50;;
15833;SDS011;8017;50.812;4.934;2023-04-15T01:39:05;9.53;;;4.77;;
15833;SDS011;8017;50.812;4.934;2023-04-15T01:42:08;9.30;;;4.47;;
15833;SDS011;8017;50.812;4.934;2023-04-15T01:45:11;9.67;;;4.67;;
15833;SDS011;8017;50.812;4.934;2023-04-15T01:48:13;6.80;;;4.07;;
15833;SDS011;8017;50.812;4.934;2023-04-15T01:51:15;6.67;;;4.67;;
15833;SDS011;8017;50.812;4.934;2023-04-15T01:54:17;8.07;;;4.93;;
15833;SDS011;8017;50.812;4.934;2023-04-15T01:57:21;6.27;;;4.87;;
15833;SDS011;8017;50.812;4.934;2023-04-15T02:00:22;8.63;;;4.70;;
15833;SDS011;8017;50.812;4.934;2023-04-15T02:03:24;6.20;;;4.97;;
15833;SDS011;8017;50.812;4.934;2023-04-15T02:06:26;9.30;;;5.03;;
15833;SDS011;8017;50.812;4.934;2023-04-15T02:09:28;7.57;;;5.20;;
15833;SDS011;8017;50.812;4.934;2023-04-15T02:12:31;10.33;;;5.80;;
15833;SDS011;8017;50.812;4.934;2023-04-15T02:15:33;7.73;;;4.97;;
15833;SDS011;8017;50.812;4.934;2023-04-15T02:18:35;7.23;;;5.27;;
15833;SDS011;8017;50.812;4.934;2023-04-15T02:21:37;8.97;;;5.07;;
15833;SDS011;8017;50.812;4.934;2023-04-15T02:24:39;6.80;;;5.23;;
15833;SDS011;8017;50.812;4.934;2023-04-15T02:27:43;9.43;;;5.23;;
15833;SDS011;8017;50.812;4.934;2023-04-15T02:30:46;6.50;;;4.60;;
15833;SDS011;8017;50.812;4.934;2023-04-15T02:33:49;7.63;;;4.77;;
15833;SDS011;8017;50.812;4.934;2023-04-15T02:36:51;5.07;;;3.97;;
15833;SDS011;8017;50.812;4.934;2023-04-15T02:39:56;7.70;;;4.50;;
15833;SDS011;8017;50.812;4.934;2023-04-15T02:42:59;5.73;;;3.70;;
15833;SDS011;8017;50.812;4.934;2023-04-15T02:46:01;8.70;;;4.20;;
15833;SDS011;8017;50.812;4.934;2023-04-15T02:49:03;7.53;;;3.70;;
15833;SDS011;8017;50.812;4.934;2023-04-15T02:52:05;6.40;;;3.90;;
15833;SDS011;8017;50.812;4.934;2023-04-15T02:55:07;8.33;;;4.47;;
15833;SDS011;8017;50.812;4.934;2023-04-15T02:58:11;5.97;;;4.27;;
15833;SDS011;8017;50.812;4.934;2023-04-15T03:01:12;6.70;;;3.93;;
15833;SDS011;8017;50.812;4.934;2023-04-15T03:04:14;9.50;;;4.17;;
15833;SDS011;8017;50.812;4.934;2023-04-15T03:07:16;6.87;;;4.20;;
15833;SDS011;8017;50.812;4.934;2023-04-15T03:10:18;6.47;;;4.17;;
15833;SDS011;8017;50.812;4.934;2023-04-15T03:13:22;8.33;;;4.37;;
15833;SDS011;8017;50.812;4.934;2023-04-15T03:16:24;10.40;;;4.40;;
15833;SDS011;8017;50.812;4.934;2023-04-15T03:19:26;7.83;;;4.17;;
15833;SDS011;8017;50.812;4.934;2023-04-15T03:22:28;7.33;;;4.07;;
15833;SDS011;8017;50.812;4.934;2023-04-15T03:25:30;7.73;;;4.00;;
15833;SDS011;8017;50.812;4.934;2023-04-15T03:28:33;6.73;;;3.93;;
15833;SDS011;8017;50.812;4.934;2023-04-15T03:31:35;8.17;;;3.83;;
15833;SDS011;8017;50.812;4.934;2023-04-15T03:34:37;7.40;;;4.27;;
15833;SDS011;8017;50.812;4.934;2023-04-15T03:37:39;6.70;;;4.00;;
15833;SDS011;8017;50.812;4.934;2023-04-15T03:40:41;8.63;;;4.10;;
15833;SDS011;8017;50.812;4.934;2023-04-15T03:43:44;7.60;;;4.10;;
15833;SDS011;8017;50.812;4.934;2023-04-15T03:46:46;6.10;;;3.77;;
15833;SDS011;8017;50.812;4.934;2023-04-15T03:49:48;5.97;;;3.73;;
15833;SDS011;8017;50.812;4.934;2023-04-15T03:52:50;6.83;;;3.60;;
15833;SDS011;8017;50.812;4.934;2023-04-15T03:55:52;6.30;;;4.10;;
15833;SDS011;8017;50.812;4.934;2023-04-15T03:58:55;6.67;;;3.83;;
15833;SDS011;8017;50.812;4.934;2023-04-15T04:01:57;6.10;;;4.00;;
15833;SDS011;8017;50.812;4.934;2023-04-15T04:04:59;5.87;;;3.90;;
15833;SDS011;8017;50.812;4.934;2023-04-15T04:08:01;5.27;;;4.20;;
15833;SDS011;8017;50.812;4.934;2023-04-15T04:11:03;5.57;;;3.77;;
15833;SDS011;8017;50.812;4.934;2023-04-15T04:14:07;6.23;;;3.90;;
15833;SDS011;8017;50.812;4.934;2023-04-15T04:17:09;5.10;;;3.70;;
15833;SDS011;8017;50.812;4.934;2023-04-15T04:20:11;4.30;;;3.70;;
15833;SDS011;8017;50.812;4.934;2023-04-15T04:23:13;4.67;;;3.83;;
15833;SDS011;8017;50.812;4.934;2023-04-15T04:26:15;6.40;;;3.67;;
15833;SDS011;8017;50.812;4.934;2023-04-15T04:29:18;7.37;;;3.87;;
15833;SDS011;8017;50.812;4.934;2023-04-15T04:32:20;6.50;;;4.27;;
15833;SDS011;8017;50.812;4.934;2023-04-15T04:35:22;6.93;;;4.03;;
15833;SDS011;8017;50.812;4.934;2023-04-15T04:38:24;5.87;;;3.80;;
15833;SDS011;8017;50.812;4.934;2023-04-15T04:41:26;5.63;;;3.90;;
15833;SDS011;8017;50.812;4.934;2023-04-15T04:44:29;8.73;;;3.93;;
15833;SDS011;8017;50.812;4.934;2023-04-15T04:47:31;6.00;;;4.03;;
15833;SDS011;8017;50.812;4.934;2023-04-15T04:50:33;6.77;;;3.87;;
15833;SDS011;8017;50.812;4.934;2023-04-15T04:53:35;7.27;;;4.40;;
15833;SDS011;8017;50.812;4.934;2023-04-15T04:56:37;7.60;;;3.83;;
15833;SDS011;8017;50.812;4.934;2023-04-15T04:59:40;5.80;;;4.10;;
15833;SDS011;8017;50.812;4.934;2023-04-15T05:02:42;7.33;;;4.07;;
15833;SDS011;8017;50.812;4.934;2023-04-15T05:05:45;6.33;;;4.13;;
15833;SDS011;8017;50.812;4.934;2023-04-15T05:08:48;6.57;;;4.17;;
15833;SDS011;8017;50.812;4.934;2023-04-15T05:11:50;5.97;;;4.17;;
15833;SDS011;8017;50.812;4.934;2023-04-15T05:14:53;7.63;;;4.60;;
15833;SDS011;8017;50.812;4.934;2023-04-15T05:17:55;7.70;;;4.50;;
15833;SDS011;8017;50.812;4.934;2023-04-15T05:20:57;7.40;;;4.23;;
15833;SDS011;8017;50.812;4.934;2023-04-15T05:24:00;7.33;;;4.70;;
15833;SDS011;8017;50.812;4.934;2023-04-15T05:27:02;8.43;;;4.57;;
15833;SDS011;8017;50.812;4.934;2023-04-15T05:30:05;7.57;;;4.60;;
15833;SDS011;8017;50.812;4.934;2023-04-15T05:33:08;6.03;;;3.93;;
15833;SDS011;8017;50.812;4.934;2023-04-15T05:36:10;5.90;;;4.10;;
15833;SDS011;8017;50.812;4.934;2023-04-15T05:39:12;8.33;;;4.50;;
15833;SDS011;8017;50.812;4.934;2023-04-15T05:42:14;6.30;;;4.13;;
15833;SDS011;8017;50.812;4.934;2023-04-15T05:45:17;6.53;;;4.07;;
15833;SDS011;8017;50.812;4.934;2023-04-15T05:48:20;6.07;;;3.97;;
15833;SDS011;8017;50.812;4.934;2023-04-15T05:51:22;8.50;;;4.03;;
15833;SDS011;8017;50.812;4.934;2023-04-15T05:54:23;9.30;;;4.00;;
15833;SDS011;8017;50.812;4.934;2023-04-15T05:57:26;6.33;;;3.87;;
15833;SDS011;8017;50.812;4.934;2023-04-15T06:00:30;3.90;;;3.50;;
15833;SDS011;8017;50.812;4.934;2023-04-15T06:03:32;8.33;;;4.37;;
15833;SDS011;8017;50.812;4.934;2023-04-15T06:06:34;7.17;;;3.80;;
15833;SDS011;8017;50.812;4.934;2023-04-15T06:09:36;8.43;;;3.70;;
15833;SDS011;8017;50.812;4.934;2023-04-15T06:12:38;8.73;;;4.40;;
15833;SDS011;8017;50.812;4.934;2023-04-15T06:15:41;11.13;;;4.77;;
15833;SDS011;8017;50.812;4.934;2023-04-15T06:18:43;5.87;;;3.80;;
15833;SDS011;8017;50.812;4.934;2023-04-15T06:21:45;7.07;;;3.97;;
15833;SDS011;8017;50.812;4.934;2023-04-15T06:24:47;6.23;;;3.97;;
15833;SDS011;8017;50.812;4.934;2023-04-15T06:27:49;5.20;;;4.10;;
15833;SDS011;8017;50.812;4.934;2023-04-15T06:30:53;6.57;;;4.20;;
15833;SDS011;8017;50.812;4.934;2023-04-15T06:33:55;5.67;;;3.80;;
15833;SDS011;8017;50.812;4.934;2023-04-15T06:36:57;7.80;;;4.00;;
15833;SDS011;8017;50.812;4.934;2023-04-15T06:39:59;6.77;;;4.37;;
15833;SDS011;8017;50.812;4.934;2023-04-15T06:43:04;6.97;;;4.10;;
15833;SDS011;8017;50.812;4.934;2023-04-15T06:46:08;6.30;;;4.13;;
15833;SDS011;8017;50.812;4.934;2023-04-15T06:49:10;7.13;;;4.37;;
15833;SDS011;8017;50.812;4.934;2023-04-15T06:52:12;7.03;;;4.27;;
15833;SDS011;8017;50.812;4.934;2023-04-15T06:55:15;6.50;;;4.37;;
15833;SDS011;8017;50.812;4.934;2023-04-15T06:58:17;6.23;;;4.40;;
15833;SDS011;8017;50.812;4.934;2023-04-15T07:01:20;7.43;;;4.90;;
15833;SDS011;8017;50.812;4.934;2023-04-15T07:04:22;10.97;;;5.10;;
15833;SDS011;8017;50.812;4.934;2023-04-15T07:07:24;6.07;;;4.83;;
15833;SDS011;8017;50.812;4.934;2023-04-15T07:10:26;11.07;;;5.30;;
15833;SDS011;8017;50.812;4.934;2023-04-15T07:13:29;12.33;;;4.67;;
15833;SDS011;8017;50.812;4.934;2023-04-15T07:16:33;8.60;;;5.00;;
15833;SDS011;8017;50.812;4.934;2023-04-15T07:19:35;10.83;;;5.20;;
15833;SDS011;8017;50.812;4.934;2023-04-15T07:22:37;15.27;;;6.03;;
15833;SDS011;8017;50.812;4.934;2023-04-15T07:25:39;8.43;;;5.77;;
15833;SDS011;8017;50.812;4.934;2023-04-15T07:28:41;11.70;;;6.13;;
15833;SDS011;8017;50.812;4.934;2023-04-15T07:31:46;12.37;;;6.37;;
15833;SDS011;8017;50.812;4.934;2023-04-15T07:34:48;9.70;;;6.10;;
15833;SDS011;8017;50.812;4.934;2023-04-15T07:37:50;11.97;;;7.00;;
15833;SDS011;8017;50.812;4.934;2023-04-15T07:40:52;7.83;;;6.00;;
15833;SDS011;8017;50.812;4.934;2023-04-15T07:43:54;12.57;;;6.50;;
15833;SDS011;8017;50.812;4.934;2023-04-15T07:46:57;9.33;;;6.17;;
15833;SDS011;8017;50.812;4.934;2023-04-15T07:49:59;13.70;;;7.00;;
15833;SDS011;8017;50.812;4.934;2023-04-15T07:53:02;11.10;;;6.97;;
15833;SDS011;8017;50.812;4.934;2023-04-15T07:56:04;11.13;;;7.33;;
15833;SDS011;8017;50.812;4.934;2023-04-15T07:59:08;9.17;;;6.80;;
15833;SDS011;8017;50.812;4.934;2023-04-15T08:02:12;12.17;;;7.47;;
15833;SDS011;8017;50.812;4.934;2023-04-15T08:05:14;12.50;;;7.63;;
15833;SDS011;8017;50.812;4.934;2023-04-15T08:08:16;9.90;;;7.40;;
15833;SDS011;8017;50.812;4.934;2023-04-15T08:11:18;8.50;;;6.70;;
15833;SDS011;8017;50.812;4.934;2023-04-15T08:14:20;12.27;;;7.53;;
15833;SDS011;8017;50.812;4.934;2023-04-15T08:17:23;9.73;;;7.37;;
15833;SDS011;8017;50.812;4.934;2023-04-15T08:20:25;11.03;;;7.40;;
15833;SDS011;8017;50.812;4.934;2023-04-15T08:23:27;11.80;;;7.80;;
15833;SDS011;8017;50.812;4.934;2023-04-15T08:26:29;10.10;;;7.73;;
15833;SDS011;8017;50.812;4.934;2023-04-15T08:29:31;14.47;;;7.37;;
15833;SDS011;8017;50.812;4.934;2023-04-15T08:32:35;12.10;;;7.57;;
15833;SDS011;8017;50.812;4.934;2023-04-15T08:35:37;11.43;;;7.33;;
15833;SDS011;8017;50.812;4.934;2023-04-15T08:38:38;11.57;;;7.63;;
15833;SDS011;8017;50.812;4.934;2023-04-15T08:41:44;11.70;;;8.03;;
15833;SDS011;8017;50.812;4.934;2023-04-15T08:44:47;10.80;;;7.40;;
15833;SDS011;8017;50.812;4.934;2023-04-15T08:47:52;10.77;;;7.17;;
15833;SDS011;8017;50.812;4.934;2023-04-15T08:50:57;15.10;;;7.80;;
15833;SDS011;8017;50.812;4.934;2023-04-15T08:53:59;10.43;;;5.47;;
15833;SDS011;8017;50.812;4.934;2023-04-15T08:57:02;10.80;;;6.30;;
15833;SDS011;8017;50.812;4.934;2023-04-15T09:00:04;11.50;;;7.27;;
15833;SDS011;8017;50.812;4.934;2023-04-15T09:03:09;8.93;;;6.73;;
15833;SDS011;8017;50.812;4.934;2023-04-15T09:06:11;14.20;;;7.90;;
15833;SDS011;8017;50.812;4.934;2023-04-15T09:09:14;11.57;;;7.63;;
15833;SDS011;8017;50.812;4.934;2023-04-15T09:12:16;10.47;;;7.80;;
15833;SDS011;8017;50.812;4.934;2023-04-15T09:15:18;12.07;;;9.87;;
15833;SDS011;8017;50.812;4.934;2023-04-15T09:18:28;10.20;;;9.00;;
15833;SDS011;8017;50.812;4.934;2023-04-15T09:21:31;10.27;;;8.60;;
15833;SDS011;8017;50.812;4.934;2023-04-15T09:24:35;11.83;;;7.97;;
15833;SDS011;8017;50.812;4.934;2023-04-15T09:27:39;12.20;;;8.50;;
15833;SDS011;8017;50.812;4.934;2023-04-15T09:30:50;11.23;;;7.40;;
15833;SDS011;8017;50.812;4.934;2023-04-15T09:33:57;9.60;;;7.43;;
15833;SDS011;8017;50.812;4.934;2023-04-15T09:36:59;7.87;;;6.27;;
15833;SDS011;8017;50.812;4.934;2023-04-15T09:40:01;8.23;;;6.40;;
15833;SDS011;8017;50.812;4.934;2023-04-15T09:43:03;10.33;;;7.10;;
15833;SDS011;8017;50.812;4.934;2023-04-15T09:46:06;7.90;;;7.10;;
15833;SDS011;8017;50.812;4.934;2023-04-15T09:49:10;8.63;;;7.37;;
15833;SDS011;8017;50.812;4.934;2023-04-15T09:52:13;9.73;;;6.70;;
15833;SDS011;8017;50.812;4.934;2023-04-15T09:55:16;9.43;;;6.83;;
15833;SDS011;8017;50.812;4.934;2023-04-15T09:58:19;9.67;;;6.40;;
15833;SDS011;8017;50.812;4.934;2023-04-15T10:01:22;10.73;;;7.17;;
15833;SDS011;8017;50.812;4.934;2023-04-15T10:04:25;8.80;;;5.60;;
15833;SDS011;8017;50.812;4.934;2023-04-15T10:07:28;6.83;;;4.50;;
15833;SDS011;8017;50.812;4.934;2023-04-15T10:10:31;6.57;;;5.30;;
15833;SDS011;8017;50.812;4.934;2023-04-15T10:13:33;9.70;;;5.80;;
15833;SDS011;8017;50.812;4.934;2023-04-15T10:16:37;8.57;;;5.10;;
15833;SDS011;8017;50.812;4.934;2023-04-15T10:19:43;5.33;;;4.50;;
15833;SDS011;8017;50.812;4.934;2023-04-15T10:22:46;7.40;;;5.03;;
15833;SDS011;8017;50.812;4.934;2023-04-15T10:25:49;5.20;;;4.70;;
15833;SDS011;8017;50.812;4.934;2023-04-15T10:28:52;6.73;;;5.20;;
15833;SDS011;8017;50.812;4.934;2023-04-15T10:31:55;7.63;;;5.03;;
15833;SDS011;8017;50.812;4.934;2023-04-15T10:35:00;5.13;;;4.37;;
15833;SDS011;8017;50.812;4.934;2023-04-15T10:38:10;6.03;;;4.67;;
15833;SDS011;8017;50.812;4.934;2023-04-15T10:41:32;6.13;;;4.33;;
15833;SDS011;8017;50.812;4.934;2023-04-15T10:44:35;6.70;;;5.23;;
15833;SDS011;8017;50.812;4.934;2023-04-15T10:47:38;5.87;;;4.40;;
15833;SDS011;8017;50.812;4.934;2023-04-15T10:50:42;7.47;;;4.77;;
15833;SDS011;8017;50.812;4.934;2023-04-15T10:53:56;5.37;;;4.23;;
15833;SDS011;8017;50.812;4.934;2023-04-15T10:57:06;5.57;;;4.00;;
15833;SDS011;8017;50.812;4.934;2023-04-15T11:00:10;5.03;;;4.40;;
15833;SDS011;8017;50.812;4.934;2023-04-15T11:03:13;6.77;;;5.17;;
15833;SDS011;8017;50.812;4.934;2023-04-15T11:06:17;4.63;;;4.20;;
15833;SDS011;8017;50.812;4.934;2023-04-15T11:09:29;6.10;;;4.20;;
15833;SDS011;8017;50.812;4.934;2023-04-15T11:12:33;5.57;;;2.90;;
15833;SDS011;8017;50.812;4.934;2023-04-15T11:15:36;4.47;;;2.90;;
15833;SDS011;8017;50.812;4.934;2023-04-15T11:18:39;4.47;;;3.77;;
15833;SDS011;8017;50.812;4.934;2023-04-15T11:21:42;3.67;;;3.07;;
15833;SDS011;8017;50.812;4.934;2023-04-15T11:24:47;3.53;;;3.20;;
15833;SDS011;8017;50.812;4.934;2023-04-15T11:27:51;3.37;;;2.70;;
15833;SDS011;8017;50.812;4.934;2023-04-15T11:30:54;3.30;;;2.80;;
15833;SDS011;8017;50.812;4.934;2023-04-15T11:33:57;3.77;;;2.80;;
15833;SDS011;8017;50.812;4.934;2023-04-15T11:37:03;6.10;;;3.20;;
15833;SDS011;8017;50.812;4.934;2023-04-15T11:40:07;4.27;;;3.53;;
15833;SDS011;8017;50.812;4.934;2023-04-15T11:43:10;3.60;;;2.80;;
15833;SDS011;8017;50.812;4.934;2023-04-15T11:46:13;3.43;;;2.57;;
15833;SDS011;8017;50.812;4.934;2023-04-15T11:49:24;2.70;;;1.87;;
15833;SDS011;8017;50.812;4.934;2023-04-15T11:52:28;2.87;;;2.20;;
15833;SDS011;8017;50.812;4.934;2023-04-15T11:55:30;4.40;;;2.50;;
15833;SDS011;8017;50.812;4.934;2023-04-15T11:58:42;4.17;;;2.70;;
15833;SDS011;8017;50.812;4.934;2023-04-15T12:01:45;3.03;;;2.17;;
15833;SDS011;8017;50.812;4.934;2023-04-15T12:04:47;4.10;;;2.40;;
15833;SDS011;8017;50.812;4.934;2023-04-15T12:07:59;2.33;;;2.03;;
15833;SDS011;8017;50.812;4.934;2023-04-15T12:11:01;3.00;;;2.33;;
15833;SDS011;8017;50.812;4.934;2023-04-15T12:14:08;4.33;;;2.30;;
15833;SDS011;8017;50.812;4.934;2023-04-15T12:17:16;3.60;;;2.07;;
15833;SDS011;8017;50.812;4.934;2023-04-15T12:20:20;3.60;;;2.03;;
15833;SDS011;8017;50.812;4.934;2023-04-15T12:23:28;4.17;;;1.70;;
15833;SDS011;8017;50.812;4.934;2023-04-15T12:26:33;2.20;;;1.30;;
15833;SDS011;8017;50.812;4.934;2023-04-15T12:29:37;2.57;;;1.80;;
15833;SDS011;8017;50.812;4.934;2023-04-15T12:32:40;4.57;;;2.20;;
15833;SDS011;8017;50.812;4.934;2023-04-15T12:35:43;4.07;;;2.80;;
15833;SDS011;8017;50.812;4.934;2023-04-15T12:38:46;3.03;;;2.10;;
15833;SDS011;8017;50.812;4.934;2023-04-15T12:41:48;3.43;;;2.00;;
15833;SDS011;8017;50.812;4.934;2023-04-15T12:44:50;5.40;;;2.50;;
15833;SDS011;8017;50.812;4.934;2023-04-15T12:47:52;3.23;;;1.57;;
15833;SDS011;8017;50.812;4.934;2023-04-15T12:50:55;2.67;;;1.33;;
15833;SDS011;8017;50.812;4.934;2023-04-15T12:53:58;3.33;;;1.60;;
15833;SDS011;8017;50.812;4.934;2023-04-15T12:57:00;1.80;;;1.20;;
15833;SDS011;8017;50.812;4.934;2023-04-15T13:00:03;1.37;;;1.10;;
15833;SDS011;8017;50.812;4.934;2023-04-15T13:03:07;1.30;;;1.07;;
15833;SDS011;8017;50.812;4.934;2023-04-15T13:06:09;1.37;;;1.20;;
15833;SDS011;8017;50.812;4.934;2023-04-15T13:09:12;3.53;;;1.30;;
15833;SDS011;8017;50.812;4.934;2023-04-15T13:12:14;4.00;;;1.57;;
15833;SDS011;8017;50.812;4.934;2023-04-15T13:15:16;1.53;;;1.30;;
15833;SDS011;8017;50.812;4.934;2023-04-15T13:18:20;1.20;;;1.03;;
15833;SDS011;8017;50.812;4.934;2023-04-15T13:21:22;2.60;;;1.30;;
15833;SDS011;8017;50.812;4.934;2023-04-15T13:24:26;4.30;;;1.30;;
15833;SDS011;8017;50.812;4.934;2023-04-15T13:27:28;3.77;;;1.50;;
15833;SDS011;8017;50.812;4.934;2023-04-15T13:30:30;2.97;;;1.40;;
15833;SDS011;8017;50.812;4.934;2023-04-15T13:33:32;2.33;;;1.27;;
15833;SDS011;8017;50.812;4.934;2023-04-15T13:36:34;1.90;;;1.40;;
15833;SDS011;8017;50.812;4.934;2023-04-15T13:39:37;2.33;;;1.20;;
15833;SDS011;8017;50.812;4.934;2023-04-15T13:42:40;1.93;;;1.50;;
15833;SDS011;8017;50.812;4.934;2023-04-15T13:45:43;2.17;;;1.33;;
15833;SDS011;8017;50.812;4.934;2023-04-15T13:48:45;1.83;;;1.20;;
15833;SDS011;8017;50.812;4.934;2023-04-15T13:51:46;3.87;;;1.40;;
15833;SDS011;8017;50.812;4.934;2023-04-15T13:54:50;2.20;;;1.40;;
15833;SDS011;8017;50.812;4.934;2023-04-15T13:57:52;2.50;;;1.50;;
15833;SDS011;8017;50.812;4.934;2023-04-15T14:00:53;3.57;;;1.60;;
15833;SDS011;8017;50.812;4.934;2023-04-15T14:03:56;3.23;;;1.73;;
15833;SDS011;8017;50.812;4.934;2023-04-15T14:07:00;3.20;;;1.60;;
15833;SDS011;8017;50.812;4.934;2023-04-15T14:10:04;6.47;;;1.80;;
15833;SDS011;8017;50.812;4.934;2023-04-15T14:13:06;2.60;;;1.90;;
15833;SDS011;8017;50.812;4.934;2023-04-15T14:16:08;2.90;;;1.70;;
15833;SDS011;8017;50.812;4.934;2023-04-15T14:19:10;2.87;;;1.80;;
15833;SDS011;8017;50.812;4.934;2023-04-15T14:22:12;2.20;;;1.50;;
15833;SDS011;8017;50.812;4.934;2023-04-15T14:25:15;2.30;;;1.73;;
15833;SDS011;8017;50.812;4.934;2023-04-15T14:28:17;1.87;;;1.40;;
15833;SDS011;8017;50.812;4.934;2023-04-15T14:31:19;4.07;;;1.80;;
15833;SDS011;8017;50.812;4.934;2023-04-15T14:34:21;3.23;;;1.47;;
15833;SDS011;8017;50.812;4.934;2023-04-15T14:37:24;3.03;;;1.73;;
15833;SDS011;8017;50.812;4.934;2023-04-15T14:40:27;2.90;;;1.60;;
15833;SDS011;8017;50.812;4.934;2023-04-15T14:43:29;2.77;;;1.90;;
15833;SDS011;8017;50.812;4.934;2023-04-15T14:46:31;3.57;;;2.20;;
15833;SDS011;8017;50.812;4.934;2023-04-15T14:49:33;3.03;;;2.20;;
15833;SDS011;8017;50.812;4.934;2023-04-15T14:52:35;4.40;;;2.63;;
15833;SDS011;8017;50.812;4.934;2023-04-15T14:55:39;3.00;;;2.33;;
15833;SDS011;8017;50.812;4.934;2023-04-15T14:58:42;3.20;;;2.30;;
15833;SDS011;8017;50.812;4.934;2023-04-15T15:01:44;1.70;;;1.57;;
15833;SDS011;8017;50.812;4.934;2023-04-15T15:04:46;2.20;;;1.83;;
15833;SDS011;8017;50.812;4.934;2023-04-15T15:07:48;3.20;;;2.30;;
15833;SDS011;8017;50.812;4.934;2023-04-15T15:10:52;2.47;;;2.20;;
15833;SDS011;8017;50.812;4.934;2023-04-15T15:13:54;2.40;;;1.63;;
15833;SDS011;8017;50.812;4.934;2023-04-15T15:16:56;2.93;;;1.77;;
15833;SDS011;8017;50.812;4.934;2023-04-15T15:19:58;3.53;;;1.97;;
15833;SDS011;8017;50.812;4.934;2023-04-15T15:23:00;3.30;;;2.00;;
15833;SDS011;8017;50.812;4.934;2023-04-15T15:26:03;1.90;;;1.63;;
15833;SDS011;8017;50.812;4.934;2023-04-15T15:29:05;2.77;;;1.60;;
15833;SDS011;8017;50.812;4.934;2023-04-15T15:32:07;2.70;;;2.00;;
15833;SDS011;8017;50.812;4.934;2023-04-15T15:35:09;3.70;;;1.73;;
15833;SDS011;8017;50.812;4.934;2023-04-15T15:38:11;3.53;;;1.60;;
15833;SDS011;8017;50.812;4.934;2023-04-15T15:41:15;3.60;;;1.60;;
15833;SDS011;8017;50.812;4.934;2023-04-15T15:44:17;1.93;;;1.37;;
15833;SDS011;8017;50.812;4.934;2023-04-15T15:47:22;1.67;;;1.50;;
15833;SDS011;8017;50.812;4.934;2023-04-15T15:50:25;2.33;;;1.27;;
15833;SDS011;8017;50.812;4.934;2023-04-15T15:53:28;1.67;;;1.10;;
15833;SDS011;8017;50.812;4.934;2023-04-15T15:56:32;2.13;;;1.33;;
15833;SDS011;8017;50.812;4.934;2023-04-15T15:59:37;2.17;;;1.20;;
15833;SDS011;8017;50.812;4.934;2023-04-15T16:02:41;1.40;;;1.00;;
15833;SDS011;8017;50.812;4.934;2023-04-15T16:05:44;1.40;;;0.90;;
15833;SDS011;8017;50.812;4.934;2023-04-15T16:08:47;1.10;;;1.00;;
15833;SDS011;8017;50.812;4.934;2023-04-15T16:11:54;1.43;;;1.10;;
15833;SDS011;8017;50.812;4.934;2023-04-15T16:14:57;1.30;;;1.20;;
15833;SDS011;8017;50.812;4.934;2023-04-15T16:17:59;2.87;;;1.30;;
15833;SDS011;8017;50.812;4.934;2023-04-15T16:21:05;1.40;;;1.00;;
15833;SDS011;8017;50.812;4.934;2023-04-15T16:24:07;2.77;;;1.03;;
15833;SDS011;8017;50.812;4.934;2023-04-15T16:27:10;1.50;;;1.20;;
15833;SDS011;8017;50.812;4.934;2023-04-15T16:30:15;2.43;;;1.33;;
15833;SDS011;8017;50.812;4.934;2023-04-15T16:33:17;2.53;;;1.30;;
15833;SDS011;8017;50.812;4.934;2023-04-15T16:36:19;1.73;;;1.27;;
15833;SDS011;8017;50.812;4.934;2023-04-15T16:39:21;1.80;;;1.17;;
15833;SDS011;8017;50.812;4.934;2023-04-15T16:42:24;1.13;;;0.87;;
15833;SDS011;8017;50.812;4.934;2023-04-15T16:45:26;3.70;;;0.80;;
15833;SDS011;8017;50.812;4.934;2023-04-15T16:48:28;2.07;;;0.80;;
15833;SDS011;8017;50.812;4.934;2023-04-15T16:51:30;3.17;;;0.73;;
15833;SDS011;8017;50.812;4.934;2023-04-15T16:54:32;1.80;;;0.97;;
15833;SDS011;8017;50.812;4.934;2023-04-15T16:57:38;1.97;;;0.90;;
15833;SDS011;8017;50.812;4.934;2023-04-15T17:00:40;1.43;;;0.90;;
15833;SDS011;8017;50.812;4.934;2023-04-15T17:03:42;1.27;;;0.90;;
15833;SDS011;8017;50.812;4.934;2023-04-15T17:06:44;1.73;;;0.77;;
15833;SDS011;8017;50.812;4.934;2023-04-15T17:09:47;2.47;;;1.50;;
15833;SDS011;8017;50.812;4.934;2023-04-15T17:12:50;3.87;;;1.60;;
15833;SDS011;8017;50.812;4.934;2023-04-15T17:15:52;3.57;;;1.80;;
15833;SDS011;8017;50.812;4.934;2023-04-15T17:18:54;3.77;;;1.40;;
15833;SDS011;8017;50.812;4.934;2023-04-15T17:21:56;3.60;;;1.10;;
15833;SDS011;8017;50.812;4.934;2023-04-15T17:24:58;2.93;;;1.50;;
15833;SDS011;8017;50.812;4.934;2023-04-15T17:28:01;3.37;;;1.57;;
15833;SDS011;8017;50.812;4.934;2023-04-15T17:31:03;2.90;;;1.40;;
15833;SDS011;8017;50.812;4.934;2023-04-15T17:34:05;2.87;;;1.40;;
15833;SDS011;8017;50.812;4.934;2023-04-15T17:37:07;2.77;;;1.50;;
15833;SDS011;8017;50.812;4.934;2023-04-15T17:40:10;3.40;;;1.60;;
15833;SDS011;8017;50.812;4.934;2023-04-15T17:43:25;2.87;;;1.77;;
15833;SDS011;8017;50.812;4.934;2023-04-15T17:46:34;3.43;;;2.00;;
15833;SDS011;8017;50.812;4.934;2023-04-15T17:49:36;1.93;;;1.80;;
15833;SDS011;8017;50.812;4.934;2023-04-15T17:52:37;3.73;;;1.53;;
15833;SDS011;8017;50.812;4.934;2023-04-15T17:55:41;2.83;;;1.50;;
15833;SDS011;8017;50.812;4.934;2023-04-15T17:58:57;3.33;;;1.50;;
15833;SDS011;8017;50.812;4.934;2023-04-15T18:02:05;4.23;;;1.73;;
15833;SDS011;8017;50.812;4.934;2023-04-15T18:05:11;6.10;;;1.87;;
15833;SDS011;8017;50.812;4.934;2023-04-15T18:08:19;4.17;;;1.80;;
15833;SDS011;8017;50.812;4.934;2023-04-15T18:11:22;4.30;;;1.67;;
15833;SDS011;8017;50.812;4.934;2023-04-15T18:14:29;3.13;;;1.73;;
15833;SDS011;8017;50.812;4.934;2023-04-15T18:17:32;2.30;;;1.63;;
15833;SDS011;8017;50.812;4.934;2023-04-15T18:20:44;3.03;;;1.80;;
15833;SDS011;8017;50.812;4.934;2023-04-15T18:23:51;3.77;;;2.30;;
15833;SDS011;8017;50.812;4.934;2023-04-15T18:26:58;3.77;;;2.30;;
15833;SDS011;8017;50.812;4.934;2023-04-15T18:30:09;2.97;;;1.80;;
15833;SDS011;8017;50.812;4.934;2023-04-15T18:33:20;3.43;;;1.50;;
15833;SDS011;8017;50.812;4.934;2023-04-15T18:36:27;7.80;;;1.67;;
15833;SDS011;8017;50.812;4.934;2023-04-15T18:39:33;5.23;;;1.80;;